sensor_id;sensor_type;location;lat;lon;timestamp;P1;durP1;ratioP1;P2;durP2;ratioP2
49942;SDS011;36011;53.362;58.948;2022-09-09T00:05:27;2.92;;;2.45;;
49942;SDS011;36011;53.362;58.948;2022-09-09T00:08:46;2.78;;;2.30;;
49942;SDS011;36011;53.362;58.948;2022-09-09T00:12:24;2.10;;;1.90;;
49942;SDS011;36011;53.362;58.948;2022-09-09T00:15:42;2.60;;;2.40;;
49942;SDS011;36011;53.362;58.948;2022-09-09T00:19:07;2.90;;;2.55;;
49942;SDS011;36011;53.362;58.948;2022-09-09T00:22:23;3.25;;;2.25;;
49942;SDS011;36011;53.362;58.948;2022-09-09T00:25:32;2.67;;;2.42;;
49942;SDS011;36011;53.362;58.948;2022-09-09T00:32:14;3.40;;;2.35;;
49942;SDS011;36011;53.362;58.948;2022-09-09T00:35:21;2.97;;;2.50;;
49942;SDS011;36011;53.362;58.948;2022-09-09T00:38:39;2.50;;;2.05;;
49942;SDS011;36011;53.362;58.948;2022-09-09T00:55:21;4.68;;;2.80;;
49942;SDS011;36011;53.362;58.948;2022-09-09T00:58:46;4.18;;;2.40;;
49942;SDS011;36011;53.362;58.948;2022-09-09T01:02:14;3.30;;;3.00;;
49942;SDS011;36011;53.362;58.948;2022-09-09T01:12:23;3.30;;;3.00;;
49942;SDS011;36011;53.362;58.948;2022-09-09T01:15:30;2.42;;;2.22;;
49942;SDS011;36011;53.362;58.948;2022-09-09T01:18:41;7.07;;;2.90;;
49942;SDS011;36011;53.362;58.948;2022-09-09T01:21:50;3.47;;;2.85;;
49942;SDS011;36011;53.362;58.948;2022-09-09T01:28:21;3.50;;;2.95;;
49942;SDS011;36011;53.362;58.948;2022-09-09T01:34:55;3.47;;;2.40;;
49942;SDS011;36011;53.362;58.948;2022-09-09T01:37:58;3.97;;;3.17;;
49942;SDS011;36011;53.362;58.948;2022-09-09T01:41:01;3.67;;;3.28;;
49942;SDS011;36011;53.362;58.948;2022-09-09T01:44:03;2.92;;;2.60;;
49942;SDS011;36011;53.362;58.948;2022-09-09T01:47:04;4.30;;;2.88;;
49942;SDS011;36011;53.362;58.948;2022-09-09T01:50:12;4.43;;;2.78;;
49942;SDS011;36011;53.362;58.948;2022-09-09T01:53:20;3.97;;;2.63;;
49942;SDS011;36011;53.362;58.948;2022-09-09T02:06:37;3.40;;;2.80;;
49942;SDS011;36011;53.362;58.948;2022-09-09T02:09:42;4.05;;;2.60;;
49942;SDS011;36011;53.362;58.948;2022-09-09T02:12:58;2.67;;;2.28;;
49942;SDS011;36011;53.362;58.948;2022-09-09T02:19:28;4.07;;;2.83;;
49942;SDS011;36011;53.362;58.948;2022-09-09T02:22:33;3.63;;;2.95;;
49942;SDS011;36011;53.362;58.948;2022-09-09T02:25:44;3.85;;;2.88;;
49942;SDS011;36011;53.362;58.948;2022-09-09T02:28:50;3.63;;;2.38;;
49942;SDS011;36011;53.362;58.948;2022-09-09T02:31:56;3.10;;;2.67;;
49942;SDS011;36011;53.362;58.948;2022-09-09T02:35:05;4.88;;;3.70;;
49942;SDS011;36011;53.362;58.948;2022-09-09T02:38:14;8.75;;;4.05;;
49942;SDS011;36011;53.362;58.948;2022-09-09T02:41:20;5.47;;;3.55;;
49942;SDS011;36011;53.362;58.948;2022-09-09T02:44:32;3.97;;;3.20;;
49942;SDS011;36011;53.362;58.948;2022-09-09T02:51:01;4.95;;;3.13;;
49942;SDS011;36011;53.362;58.948;2022-09-09T02:54:17;4.13;;;3.08;;
49942;SDS011;36011;53.362;58.948;2022-09-09T02:57:28;4.78;;;3.33;;
49942;SDS011;36011;53.362;58.948;2022-09-09T03:00:31;7.10;;;2.97;;
49942;SDS011;36011;53.362;58.948;2022-09-09T03:03:33;3.58;;;3.00;;
49942;SDS011;36011;53.362;58.948;2022-09-09T03:06:37;4.22;;;2.95;;
49942;SDS011;36011;53.362;58.948;2022-09-09T03:09:39;5.28;;;2.72;;
49942;SDS011;36011;53.362;58.948;2022-09-09T03:12:40;4.20;;;2.70;;
49942;SDS011;36011;53.362;58.948;2022-09-09T03:15:42;3.65;;;2.72;;
49942;SDS011;36011;53.362;58.948;2022-09-09T03:21:49;3.22;;;2.50;;
49942;SDS011;36011;53.362;58.948;2022-09-09T03:24:51;5.18;;;3.20;;
49942;SDS011;36011;53.362;58.948;2022-09-09T03:27:53;8.07;;;5.50;;
49942;SDS011;36011;53.362;58.948;2022-09-09T03:30:58;6.60;;;4.50;;
49942;SDS011;36011;53.362;58.948;2022-09-09T03:34:03;8.55;;;4.55;;
49942;SDS011;36011;53.362;58.948;2022-09-09T03:37:09;13.60;;;6.13;;
49942;SDS011;36011;53.362;58.948;2022-09-09T03:43:14;4.88;;;3.60;;
49942;SDS011;36011;53.362;58.948;2022-09-09T03:46:17;10.27;;;6.43;;
49942;SDS011;36011;53.362;58.948;2022-09-09T03:49:22;5.10;;;2.65;;
49942;SDS011;36011;53.362;58.948;2022-09-09T03:52:25;3.92;;;2.67;;
49942;SDS011;36011;53.362;58.948;2022-09-09T03:55:31;2.92;;;2.58;;
49942;SDS011;36011;53.362;58.948;2022-09-09T03:58:34;4.18;;;2.40;;
49942;SDS011;36011;53.362;58.948;2022-09-09T04:01:39;4.03;;;2.78;;
49942;SDS011;36011;53.362;58.948;2022-09-09T04:04:41;3.47;;;2.55;;
49942;SDS011;36011;53.362;58.948;2022-09-09T04:07:45;7.10;;;2.78;;
49942;SDS011;36011;53.362;58.948;2022-09-09T04:13:50;2.72;;;1.90;;
49942;SDS011;36011;53.362;58.948;2022-09-09T04:16:54;1.98;;;1.63;;
49942;SDS011;36011;53.362;58.948;2022-09-09T04:20:01;2.83;;;1.80;;
49942;SDS011;36011;53.362;58.948;2022-09-09T04:23:07;7.43;;;3.25;;
49942;SDS011;36011;53.362;58.948;2022-09-09T04:29:12;2.92;;;1.77;;
49942;SDS011;36011;53.362;58.948;2022-09-09T04:32:13;3.05;;;1.70;;
49942;SDS011;36011;53.362;58.948;2022-09-09T04:35:16;1.65;;;1.40;;
49942;SDS011;36011;53.362;58.948;2022-09-09T04:38:17;1.88;;;1.33;;
49942;SDS011;36011;53.362;58.948;2022-09-09T04:41:20;1.67;;;1.58;;
49942;SDS011;36011;53.362;58.948;2022-09-09T04:44:21;2.20;;;1.63;;
49942;SDS011;36011;53.362;58.948;2022-09-09T04:47:28;1.67;;;1.50;;
49942;SDS011;36011;53.362;58.948;2022-09-09T04:50:31;2.95;;;1.60;;
49942;SDS011;36011;53.362;58.948;2022-09-09T04:53:34;4.03;;;1.50;;
49942;SDS011;36011;53.362;58.948;2022-09-09T04:56:36;2.78;;;1.92;;
49942;SDS011;36011;53.362;58.948;2022-09-09T04:59:42;2.22;;;1.67;;
49942;SDS011;36011;53.362;58.948;2022-09-09T05:02:47;2.83;;;1.52;;
49942;SDS011;36011;53.362;58.948;2022-09-09T05:05:52;2.35;;;1.40;;
49942;SDS011;36011;53.362;58.948;2022-09-09T05:09:02;1.40;;;1.05;;
49942;SDS011;36011;53.362;58.948;2022-09-09T05:12:04;4.07;;;1.70;;
49942;SDS011;36011;53.362;58.948;2022-09-09T05:15:06;4.00;;;2.33;;
49942;SDS011;36011;53.362;58.948;2022-09-09T05:18:10;4.18;;;2.25;;
49942;SDS011;36011;53.362;58.948;2022-09-09T05:21:14;2.63;;;1.60;;
49942;SDS011;36011;53.362;58.948;2022-09-09T05:24:16;2.55;;;1.10;;
49942;SDS011;36011;53.362;58.948;2022-09-09T05:27:20;9.43;;;4.50;;
49942;SDS011;36011;53.362;58.948;2022-09-09T05:30:22;16.00;;;8.75;;
49942;SDS011;36011;53.362;58.948;2022-09-09T05:33:26;4.35;;;3.03;;
49942;SDS011;36011;53.362;58.948;2022-09-09T05:36:33;5.53;;;2.60;;
49942;SDS011;36011;53.362;58.948;2022-09-09T05:39:34;4.07;;;2.35;;
49942;SDS011;36011;53.362;58.948;2022-09-09T05:42:41;1.92;;;1.40;;
49942;SDS011;36011;53.362;58.948;2022-09-09T05:45:43;1.90;;;1.25;;
49942;SDS011;36011;53.362;58.948;2022-09-09T05:48:45;1.58;;;0.73;;
49942;SDS011;36011;53.362;58.948;2022-09-09T05:51:57;4.18;;;1.83;;
49942;SDS011;36011;53.362;58.948;2022-09-09T05:55:00;3.75;;;1.30;;
49942;SDS011;36011;53.362;58.948;2022-09-09T05:58:07;2.53;;;1.30;;
49942;SDS011;36011;53.362;58.948;2022-09-09T06:01:11;2.45;;;1.20;;
49942;SDS011;36011;53.362;58.948;2022-09-09T06:04:16;3.80;;;1.08;;
49942;SDS011;36011;53.362;58.948;2022-09-09T06:07:18;1.65;;;1.20;;
49942;SDS011;36011;53.362;58.948;2022-09-09T06:10:23;1.30;;;1.20;;
49942;SDS011;36011;53.362;58.948;2022-09-09T06:13:26;1.92;;;1.00;;
49942;SDS011;36011;53.362;58.948;2022-09-09T06:16:31;3.20;;;0.95;;
49942;SDS011;36011;53.362;58.948;2022-09-09T06:19:35;1.35;;;0.93;;
49942;SDS011;36011;53.362;58.948;2022-09-09T06:22:39;1.40;;;1.20;;
49942;SDS011;36011;53.362;58.948;2022-09-09T06:25:42;1.05;;;0.95;;
49942;SDS011;36011;53.362;58.948;2022-09-09T06:28:47;2.15;;;0.80;;
49942;SDS011;36011;53.362;58.948;2022-09-09T06:31:53;2.65;;;1.20;;
49942;SDS011;36011;53.362;58.948;2022-09-09T06:34:58;2.08;;;0.90;;
49942;SDS011;36011;53.362;58.948;2022-09-09T06:38:07;1.33;;;0.90;;
49942;SDS011;36011;53.362;58.948;2022-09-09T06:41:10;1.88;;;0.70;;
49942;SDS011;36011;53.362;58.948;2022-09-09T06:44:15;0.90;;;0.85;;
49942;SDS011;36011;53.362;58.948;2022-09-09T06:47:19;0.88;;;0.88;;
49942;SDS011;36011;53.362;58.948;2022-09-09T06:50:25;2.53;;;1.33;;
49942;SDS011;36011;53.362;58.948;2022-09-09T06:53:29;1.90;;;1.42;;
49942;SDS011;36011;53.362;58.948;2022-09-09T06:59:41;1.92;;;0.98;;
49942;SDS011;36011;53.362;58.948;2022-09-09T07:02:45;3.45;;;1.45;;
49942;SDS011;36011;53.362;58.948;2022-09-09T07:05:53;2.58;;;1.80;;
49942;SDS011;36011;53.362;58.948;2022-09-09T07:09:02;3.35;;;2.65;;
49942;SDS011;36011;53.362;58.948;2022-09-09T07:12:06;4.88;;;2.97;;
49942;SDS011;36011;53.362;58.948;2022-09-09T07:15:13;2.70;;;2.10;;
49942;SDS011;36011;53.362;58.948;2022-09-09T07:18:19;3.30;;;1.90;;
49942;SDS011;36011;53.362;58.948;2022-09-09T07:24:25;1.60;;;1.48;;
49942;SDS011;36011;53.362;58.948;2022-09-09T07:27:31;1.92;;;1.42;;
49942;SDS011;36011;53.362;58.948;2022-09-09T07:33:38;2.60;;;1.77;;
49942;SDS011;36011;53.362;58.948;2022-09-09T07:36:42;3.10;;;2.00;;
49942;SDS011;36011;53.362;58.948;2022-09-09T07:39:46;2.45;;;1.52;;
49942;SDS011;36011;53.362;58.948;2022-09-09T07:42:50;4.15;;;3.25;;
49942;SDS011;36011;53.362;58.948;2022-09-09T07:45:58;4.70;;;2.85;;
49942;SDS011;36011;53.362;58.948;2022-09-09T07:49:06;2.67;;;2.42;;
49942;SDS011;36011;53.362;58.948;2022-09-09T07:52:17;1.40;;;1.30;;
49942;SDS011;36011;53.362;58.948;2022-09-09T07:55:21;3.20;;;1.90;;
49942;SDS011;36011;53.362;58.948;2022-09-09T07:58:28;1.77;;;1.30;;
49942;SDS011;36011;53.362;58.948;2022-09-09T08:01:30;1.42;;;1.13;;
49942;SDS011;36011;53.362;58.948;2022-09-09T08:04:43;3.67;;;1.77;;
49942;SDS011;36011;53.362;58.948;2022-09-09T08:07:44;1.38;;;1.10;;
49942;SDS011;36011;53.362;58.948;2022-09-09T08:10:48;3.22;;;1.42;;
49942;SDS011;36011;53.362;58.948;2022-09-09T08:13:50;1.95;;;1.00;;
49942;SDS011;36011;53.362;58.948;2022-09-09T08:16:52;2.30;;;1.38;;
49942;SDS011;36011;53.362;58.948;2022-09-09T08:19:57;1.48;;;1.17;;
49942;SDS011;36011;53.362;58.948;2022-09-09T08:22:59;1.52;;;1.13;;
49942;SDS011;36011;53.362;58.948;2022-09-09T08:26:04;2.00;;;0.90;;
49942;SDS011;36011;53.362;58.948;2022-09-09T08:29:09;2.83;;;1.60;;
49942;SDS011;36011;53.362;58.948;2022-09-09T08:32:14;3.38;;;2.58;;
49942;SDS011;36011;53.362;58.948;2022-09-09T08:35:20;4.43;;;3.40;;
49942;SDS011;36011;53.362;58.948;2022-09-09T08:38:21;1.48;;;1.30;;
49942;SDS011;36011;53.362;58.948;2022-09-09T08:51:19;1.77;;;1.38;;
49942;SDS011;36011;53.362;58.948;2022-09-09T08:54:23;6.38;;;3.15;;
49942;SDS011;36011;53.362;58.948;2022-09-09T08:57:33;1.65;;;1.20;;
49942;SDS011;36011;53.362;58.948;2022-09-09T09:01:19;1.15;;;0.90;;
49942;SDS011;36011;53.362;58.948;2022-09-09T09:07:38;2.30;;;1.55;;
49942;SDS011;36011;53.362;58.948;2022-09-09T09:11:02;2.35;;;1.17;;
49942;SDS011;36011;53.362;58.948;2022-09-09T09:14:12;1.00;;;0.60;;
49942;SDS011;36011;53.362;58.948;2022-09-09T09:17:23;0.75;;;0.55;;
49942;SDS011;36011;53.362;58.948;2022-09-09T09:20:49;1.95;;;0.70;;
49942;SDS011;36011;53.362;58.948;2022-09-09T09:23:55;0.50;;;0.50;;
49942;SDS011;36011;53.362;58.948;2022-09-09T09:27:06;1.05;;;0.40;;
49942;SDS011;36011;53.362;58.948;2022-09-09T09:30:20;1.90;;;0.55;;
49942;SDS011;36011;53.362;58.948;2022-09-09T09:36:42;0.70;;;0.30;;
49942;SDS011;36011;53.362;58.948;2022-09-09T09:39:52;1.13;;;0.43;;
49942;SDS011;36011;53.362;58.948;2022-09-09T09:43:00;0.88;;;0.65;;
49942;SDS011;36011;53.362;58.948;2022-09-09T09:46:05;1.33;;;0.50;;
49942;SDS011;36011;53.362;58.948;2022-09-09T09:49:19;0.90;;;0.45;;
49942;SDS011;36011;53.362;58.948;2022-09-09T09:52:24;0.40;;;0.40;;
49942;SDS011;36011;53.362;58.948;2022-09-09T09:55:30;2.25;;;0.88;;
49942;SDS011;36011;53.362;58.948;2022-09-09T10:01:49;1.23;;;0.63;;
49942;SDS011;36011;53.362;58.948;2022-09-09T10:05:04;0.40;;;0.30;;
49942;SDS011;36011;53.362;58.948;2022-09-09T10:08:20;1.92;;;0.38;;
49942;SDS011;36011;53.362;58.948;2022-09-09T10:11:29;1.00;;;0.60;;
49942;SDS011;36011;53.362;58.948;2022-09-09T10:18:08;1.10;;;0.60;;
49942;SDS011;36011;53.362;58.948;2022-09-09T10:38:10;1.35;;;0.95;;
49942;SDS011;36011;53.362;58.948;2022-09-09T10:58:23;0.70;;;0.40;;
49942;SDS011;36011;53.362;58.948;2022-09-09T11:01:47;1.98;;;0.50;;
49942;SDS011;36011;53.362;58.948;2022-09-09T11:08:05;1.50;;;0.60;;
49942;SDS011;36011;53.362;58.948;2022-09-09T11:11:17;1.25;;;0.63;;
49942;SDS011;36011;53.362;58.948;2022-09-09T11:14:42;1.33;;;0.90;;
49942;SDS011;36011;53.362;58.948;2022-09-09T11:17:47;0.73;;;0.52;;
49942;SDS011;36011;53.362;58.948;2022-09-09T11:20:58;0.75;;;0.60;;
49942;SDS011;36011;53.362;58.948;2022-09-09T11:24:03;3.22;;;1.00;;
49942;SDS011;36011;53.362;58.948;2022-09-09T11:30:20;3.08;;;1.27;;
49942;SDS011;36011;53.362;58.948;2022-09-09T11:33:41;1.23;;;0.85;;
49942;SDS011;36011;53.362;58.948;2022-09-09T11:40:26;1.00;;;0.90;;
49942;SDS011;36011;53.362;58.948;2022-09-09T11:43:45;3.42;;;1.48;;
49942;SDS011;36011;53.362;58.948;2022-09-09T11:46:50;7.13;;;2.45;;
49942;SDS011;36011;53.362;58.948;2022-09-09T11:49:55;5.13;;;2.95;;
49942;SDS011;36011;53.362;58.948;2022-09-09T11:56:32;1.13;;;0.90;;
49942;SDS011;36011;53.362;58.948;2022-09-09T11:59:50;2.05;;;1.40;;
49942;SDS011;36011;53.362;58.948;2022-09-09T12:02:58;0.80;;;0.80;;
49942;SDS011;36011;53.362;58.948;2022-09-09T12:06:09;2.00;;;0.70;;
49942;SDS011;36011;53.362;58.948;2022-09-09T12:12:51;0.65;;;0.60;;
49942;SDS011;36011;53.362;58.948;2022-09-09T12:22:28;1.92;;;0.80;;
49942;SDS011;36011;53.362;58.948;2022-09-09T12:28:52;1.77;;;1.02;;
49942;SDS011;36011;53.362;58.948;2022-09-09T12:31:59;1.43;;;0.97;;
49942;SDS011;36011;53.362;58.948;2022-09-09T12:35:11;2.33;;;0.90;;
49942;SDS011;36011;53.362;58.948;2022-09-09T12:38:43;2.45;;;1.00;;
49942;SDS011;36011;53.362;58.948;2022-09-09T12:41:52;4.78;;;1.38;;
49942;SDS011;36011;53.362;58.948;2022-09-09T12:45:01;4.63;;;1.80;;
49942;SDS011;36011;53.362;58.948;2022-09-09T12:48:09;1.23;;;1.13;;
49942;SDS011;36011;53.362;58.948;2022-09-09T12:51:19;3.63;;;1.95;;
49942;SDS011;36011;53.362;58.948;2022-09-09T12:54:30;1.90;;;1.48;;
49942;SDS011;36011;53.362;58.948;2022-09-09T12:57:37;5.55;;;2.50;;
49942;SDS011;36011;53.362;58.948;2022-09-09T13:00:48;7.28;;;4.78;;
49942;SDS011;36011;53.362;58.948;2022-09-09T13:03:54;7.13;;;4.47;;
49942;SDS011;36011;53.362;58.948;2022-09-09T13:07:05;3.58;;;2.72;;
49942;SDS011;36011;53.362;58.948;2022-09-09T13:10:11;3.58;;;2.38;;
49942;SDS011;36011;53.362;58.948;2022-09-09T13:13:16;5.15;;;2.70;;
49942;SDS011;36011;53.362;58.948;2022-09-09T13:16:28;5.18;;;2.50;;
49942;SDS011;36011;53.362;58.948;2022-09-09T13:19:35;3.80;;;2.45;;
49942;SDS011;36011;53.362;58.948;2022-09-09T13:22:39;3.97;;;2.03;;
49942;SDS011;36011;53.362;58.948;2022-09-09T13:25:41;3.00;;;1.95;;
49942;SDS011;36011;53.362;58.948;2022-09-09T13:32:17;5.68;;;3.38;;
49942;SDS011;36011;53.362;58.948;2022-09-09T13:35:22;8.10;;;3.80;;
49942;SDS011;36011;53.362;58.948;2022-09-09T13:38:25;5.85;;;4.20;;
49942;SDS011;36011;53.362;58.948;2022-09-09T13:41:32;5.93;;;2.80;;
49942;SDS011;36011;53.362;58.948;2022-09-09T13:44:38;5.07;;;2.55;;
49942;SDS011;36011;53.362;58.948;2022-09-09T13:47:45;6.03;;;2.95;;
49942;SDS011;36011;53.362;58.948;2022-09-09T13:50:57;6.18;;;2.55;;
49942;SDS011;36011;53.362;58.948;2022-09-09T13:54:09;6.75;;;3.40;;
49942;SDS011;36011;53.362;58.948;2022-09-09T13:57:15;13.77;;;3.75;;
49942;SDS011;36011;53.362;58.948;2022-09-09T14:00:24;13.88;;;5.32;;
49942;SDS011;36011;53.362;58.948;2022-09-09T14:03:25;16.88;;;5.43;;
49942;SDS011;36011;53.362;58.948;2022-09-09T14:06:32;14.93;;;5.55;;
49942;SDS011;36011;53.362;58.948;2022-09-09T14:09:43;8.43;;;3.90;;
49942;SDS011;36011;53.362;58.948;2022-09-09T14:12:50;11.10;;;3.72;;
49942;SDS011;36011;53.362;58.948;2022-09-09T14:15:52;4.68;;;2.50;;
49942;SDS011;36011;53.362;58.948;2022-09-09T14:18:59;7.05;;;2.17;;
49942;SDS011;36011;53.362;58.948;2022-09-09T14:22:00;5.07;;;2.17;;
49942;SDS011;36011;53.362;58.948;2022-09-09T14:25:02;2.42;;;1.85;;
49942;SDS011;36011;53.362;58.948;2022-09-09T14:28:08;6.15;;;2.67;;
49942;SDS011;36011;53.362;58.948;2022-09-09T14:31:13;4.78;;;2.47;;
49942;SDS011;36011;53.362;58.948;2022-09-09T14:34:22;4.22;;;2.78;;
49942;SDS011;36011;53.362;58.948;2022-09-09T14:37:28;5.25;;;2.92;;
49942;SDS011;36011;53.362;58.948;2022-09-09T14:40:34;5.95;;;3.70;;
49942;SDS011;36011;53.362;58.948;2022-09-09T14:43:39;6.05;;;3.55;;
49942;SDS011;36011;53.362;58.948;2022-09-09T14:46:45;7.43;;;3.78;;
49942;SDS011;36011;53.362;58.948;2022-09-09T14:49:47;5.63;;;3.80;;
49942;SDS011;36011;53.362;58.948;2022-09-09T14:52:51;6.18;;;3.63;;
49942;SDS011;36011;53.362;58.948;2022-09-09T14:55:53;5.85;;;3.17;;
49942;SDS011;36011;53.362;58.948;2022-09-09T14:59:10;7.05;;;3.53;;
49942;SDS011;36011;53.362;58.948;2022-09-09T15:02:11;8.27;;;4.38;;
49942;SDS011;36011;53.362;58.948;2022-09-09T15:05:16;7.55;;;3.70;;
49942;SDS011;36011;53.362;58.948;2022-09-09T15:08:18;5.35;;;3.58;;
49942;SDS011;36011;53.362;58.948;2022-09-09T15:11:22;5.95;;;3.92;;
49942;SDS011;36011;53.362;58.948;2022-09-09T15:14:27;11.50;;;4.47;;
49942;SDS011;36011;53.362;58.948;2022-09-09T15:17:31;10.57;;;4.85;;
49942;SDS011;36011;53.362;58.948;2022-09-09T15:20:35;7.22;;;4.45;;
49942;SDS011;36011;53.362;58.948;2022-09-09T15:23:38;12.55;;;5.80;;
49942;SDS011;36011;53.362;58.948;2022-09-09T15:26:45;15.10;;;8.55;;
49942;SDS011;36011;53.362;58.948;2022-09-09T15:29:46;13.15;;;8.63;;
49942;SDS011;36011;53.362;58.948;2022-09-09T15:32:53;14.20;;;9.77;;
49942;SDS011;36011;53.362;58.948;2022-09-09T15:36:00;19.00;;;11.60;;
49942;SDS011;36011;53.362;58.948;2022-09-09T15:39:02;16.50;;;11.02;;
49942;SDS011;36011;53.362;58.948;2022-09-09T15:42:06;19.10;;;12.52;;
49942;SDS011;36011;53.362;58.948;2022-09-09T15:45:09;15.30;;;11.70;;
49942;SDS011;36011;53.362;58.948;2022-09-09T15:48:10;16.98;;;12.43;;
49942;SDS011;36011;53.362;58.948;2022-09-09T15:51:19;17.83;;;13.55;;
49942;SDS011;36011;53.362;58.948;2022-09-09T15:57:24;18.95;;;12.00;;
49942;SDS011;36011;53.362;58.948;2022-09-09T16:00:29;13.93;;;10.68;;
49942;SDS011;36011;53.362;58.948;2022-09-09T16:03:36;13.05;;;9.60;;
49942;SDS011;36011;53.362;58.948;2022-09-09T16:06:43;14.48;;;8.40;;
49942;SDS011;36011;53.362;58.948;2022-09-09T16:09:47;18.83;;;9.48;;
49942;SDS011;36011;53.362;58.948;2022-09-09T16:12:56;14.82;;;8.80;;
49942;SDS011;36011;53.362;58.948;2022-09-09T16:16:00;11.85;;;8.23;;
49942;SDS011;36011;53.362;58.948;2022-09-09T16:19:05;11.82;;;8.38;;
49942;SDS011;36011;53.362;58.948;2022-09-09T16:22:12;11.95;;;8.07;;
49942;SDS011;36011;53.362;58.948;2022-09-09T16:25:20;13.20;;;8.23;;
49942;SDS011;36011;53.362;58.948;2022-09-09T16:28:25;11.82;;;8.27;;
49942;SDS011;36011;53.362;58.948;2022-09-09T16:31:34;29.70;;;17.25;;
49942;SDS011;36011;53.362;58.948;2022-09-09T16:34:41;27.05;;;15.68;;
49942;SDS011;36011;53.362;58.948;2022-09-09T16:37:46;16.83;;;10.48;;
49942;SDS011;36011;53.362;58.948;2022-09-09T16:40:47;16.67;;;10.15;;
49942;SDS011;36011;53.362;58.948;2022-09-09T16:43:52;13.85;;;9.15;;
49942;SDS011;36011;53.362;58.948;2022-09-09T16:46:57;14.13;;;8.50;;
49942;SDS011;36011;53.362;58.948;2022-09-09T16:49:58;16.63;;;9.82;;
49942;SDS011;36011;53.362;58.948;2022-09-09T16:53:00;15.70;;;8.63;;
49942;SDS011;36011;53.362;58.948;2022-09-09T16:56:14;14.98;;;8.52;;
49942;SDS011;36011;53.362;58.948;2022-09-09T16:59:22;14.20;;;7.97;;
49942;SDS011;36011;53.362;58.948;2022-09-09T17:02:27;16.08;;;9.52;;
49942;SDS011;36011;53.362;58.948;2022-09-09T17:05:32;15.65;;;9.68;;
49942;SDS011;36011;53.362;58.948;2022-09-09T17:08:33;20.13;;;10.18;;
49942;SDS011;36011;53.362;58.948;2022-09-09T17:11:37;20.75;;;12.93;;
49942;SDS011;36011;53.362;58.948;2022-09-09T17:14:39;20.02;;;12.80;;
49942;SDS011;36011;53.362;58.948;2022-09-09T17:17:43;26.92;;;15.07;;
49942;SDS011;36011;53.362;58.948;2022-09-09T17:20:49;23.00;;;14.90;;
49942;SDS011;36011;53.362;58.948;2022-09-09T17:23:51;20.35;;;13.52;;
49942;SDS011;36011;53.362;58.948;2022-09-09T17:27:00;19.08;;;13.60;;
49942;SDS011;36011;53.362;58.948;2022-09-09T17:30:03;20.80;;;13.75;;
49942;SDS011;36011;53.362;58.948;2022-09-09T17:33:05;20.10;;;12.75;;
49942;SDS011;36011;53.362;58.948;2022-09-09T17:36:13;21.52;;;13.45;;
49942;SDS011;36011;53.362;58.948;2022-09-09T17:39:24;21.40;;;14.23;;
49942;SDS011;36011;53.362;58.948;2022-09-09T17:42:29;25.73;;;15.55;;
49942;SDS011;36011;53.362;58.948;2022-09-09T17:48:38;21.65;;;14.57;;
49942;SDS011;36011;53.362;58.948;2022-09-09T17:51:48;28.10;;;15.15;;
49942;SDS011;36011;53.362;58.948;2022-09-09T17:54:55;24.98;;;14.75;;
49942;SDS011;36011;53.362;58.948;2022-09-09T17:58:00;24.85;;;15.23;;
49942;SDS011;36011;53.362;58.948;2022-09-09T18:01:05;25.83;;;16.23;;
49942;SDS011;36011;53.362;58.948;2022-09-09T18:04:12;25.42;;;15.50;;
49942;SDS011;36011;53.362;58.948;2022-09-09T18:07:21;27.05;;;16.52;;
49942;SDS011;36011;53.362;58.948;2022-09-09T18:10:26;27.50;;;15.30;;
49942;SDS011;36011;53.362;58.948;2022-09-09T18:13:28;26.35;;;15.68;;
49942;SDS011;36011;53.362;58.948;2022-09-09T18:16:30;26.63;;;15.52;;
49942;SDS011;36011;53.362;58.948;2022-09-09T18:19:35;29.58;;;15.40;;
49942;SDS011;36011;53.362;58.948;2022-09-09T18:22:43;20.38;;;13.52;;
49942;SDS011;36011;53.362;58.948;2022-09-09T18:25:50;27.65;;;13.73;;
49942;SDS011;36011;53.362;58.948;2022-09-09T18:28:56;23.23;;;14.27;;
49942;SDS011;36011;53.362;58.948;2022-09-09T18:31:59;24.48;;;14.13;;
49942;SDS011;36011;53.362;58.948;2022-09-09T18:35:03;29.52;;;17.60;;
49942;SDS011;36011;53.362;58.948;2022-09-09T18:38:04;26.17;;;16.95;;
49942;SDS011;36011;53.362;58.948;2022-09-09T18:44:24;31.92;;;17.42;;
49942;SDS011;36011;53.362;58.948;2022-09-09T18:47:32;28.00;;;15.70;;
49942;SDS011;36011;53.362;58.948;2022-09-09T18:50:40;24.52;;;13.98;;
49942;SDS011;36011;53.362;58.948;2022-09-09T18:53:43;23.67;;;12.13;;
49942;SDS011;36011;53.362;58.948;2022-09-09T18:56:51;16.10;;;9.35;;
49942;SDS011;36011;53.362;58.948;2022-09-09T18:59:58;12.52;;;7.07;;
49942;SDS011;36011;53.362;58.948;2022-09-09T19:03:07;12.27;;;7.13;;
49942;SDS011;36011;53.362;58.948;2022-09-09T19:06:09;9.27;;;5.22;;
49942;SDS011;36011;53.362;58.948;2022-09-09T19:09:15;8.35;;;3.95;;
49942;SDS011;36011;53.362;58.948;2022-09-09T19:12:21;6.55;;;3.67;;
49942;SDS011;36011;53.362;58.948;2022-09-09T19:15:27;8.07;;;3.38;;
49942;SDS011;36011;53.362;58.948;2022-09-09T19:18:34;5.97;;;2.92;;
49942;SDS011;36011;53.362;58.948;2022-09-09T19:21:47;8.07;;;3.97;;
49942;SDS011;36011;53.362;58.948;2022-09-09T19:24:48;12.35;;;5.68;;
49942;SDS011;36011;53.362;58.948;2022-09-09T19:27:51;7.97;;;4.32;;
49942;SDS011;36011;53.362;58.948;2022-09-09T19:30:53;8.00;;;4.03;;
49942;SDS011;36011;53.362;58.948;2022-09-09T19:33:56;11.25;;;5.40;;
49942;SDS011;36011;53.362;58.948;2022-09-09T19:37:00;12.52;;;6.45;;
49942;SDS011;36011;53.362;58.948;2022-09-09T19:40:02;15.73;;;8.57;;
49942;SDS011;36011;53.362;58.948;2022-09-09T19:43:10;14.45;;;8.55;;
49942;SDS011;36011;53.362;58.948;2022-09-09T19:46:15;20.20;;;9.93;;
49942;SDS011;36011;53.362;58.948;2022-09-09T19:49:23;38.13;;;17.15;;
49942;SDS011;36011;53.362;58.948;2022-09-09T19:52:25;30.73;;;16.00;;
49942;SDS011;36011;53.362;58.948;2022-09-09T19:55:26;30.70;;;17.38;;
49942;SDS011;36011;53.362;58.948;2022-09-09T19:58:28;30.00;;;15.40;;
49942;SDS011;36011;53.362;58.948;2022-09-09T20:01:38;32.30;;;15.90;;
49942;SDS011;36011;53.362;58.948;2022-09-09T20:04:43;31.15;;;15.10;;
49942;SDS011;36011;53.362;58.948;2022-09-09T20:07:45;27.63;;;14.65;;
49942;SDS011;36011;53.362;58.948;2022-09-09T20:10:50;29.48;;;15.98;;
49942;SDS011;36011;53.362;58.948;2022-09-09T20:13:52;28.50;;;16.35;;
49942;SDS011;36011;53.362;58.948;2022-09-09T20:16:54;28.58;;;15.75;;
49942;SDS011;36011;53.362;58.948;2022-09-09T20:20:01;30.52;;;16.15;;
49942;SDS011;36011;53.362;58.948;2022-09-09T20:23:04;31.27;;;15.50;;
49942;SDS011;36011;53.362;58.948;2022-09-09T20:26:09;24.15;;;13.38;;
49942;SDS011;36011;53.362;58.948;2022-09-09T20:29:15;26.73;;;12.13;;
49942;SDS011;36011;53.362;58.948;2022-09-09T20:32:22;24.60;;;12.10;;
49942;SDS011;36011;53.362;58.948;2022-09-09T20:35:27;19.83;;;10.82;;
49942;SDS011;36011;53.362;58.948;2022-09-09T20:38:28;14.38;;;9.63;;
49942;SDS011;36011;53.362;58.948;2022-09-09T20:41:30;12.38;;;8.30;;
49942;SDS011;36011;53.362;58.948;2022-09-09T20:44:33;13.27;;;8.40;;
49942;SDS011;36011;53.362;58.948;2022-09-09T20:47:34;13.73;;;7.63;;
49942;SDS011;36011;53.362;58.948;2022-09-09T20:50:35;9.07;;;6.30;;
49942;SDS011;36011;53.362;58.948;2022-09-09T20:53:39;8.30;;;6.28;;
49942;SDS011;36011;53.362;58.948;2022-09-09T20:56:45;11.25;;;6.60;;
49942;SDS011;36011;53.362;58.948;2022-09-09T20:59:50;9.27;;;6.30;;
49942;SDS011;36011;53.362;58.948;2022-09-09T21:02:51;6.20;;;5.00;;
49942;SDS011;36011;53.362;58.948;2022-09-09T21:05:53;12.52;;;5.53;;
49942;SDS011;36011;53.362;58.948;2022-09-09T21:08:56;8.63;;;5.63;;